sensor_id;sensor_type;location;lat;lon;timestamp;temperature;humidity
17740;DHT22;8990;33.226;-97.150;2022-11-15T00:00:34;5.90;99.90
17740;DHT22;8990;33.226;-97.150;2022-11-15T00:03:24;5.90;99.90
17740;DHT22;8990;33.226;-97.150;2022-11-15T00:06:12;5.90;99.90
17740;DHT22;8990;33.226;-97.150;2022-11-15T00:09:02;5.90;99.90
17740;DHT22;8990;33.226;-97.150;2022-11-15T00:11:52;5.90;99.90
17740;DHT22;8990;33.226;-97.150;2022-11-15T00:14:41;5.90;99.90
17740;DHT22;8990;33.226;-97.150;2022-11-15T00:17:30;5.90;99.90
17740;DHT22;8990;33.226;-97.150;2022-11-15T00:20:18;5.90;99.90
17740;DHT22;8990;33.226;-97.150;2022-11-15T00:23:06;5.90;99.90
17740;DHT22;8990;33.226;-97.150;2022-11-15T00:25:58;5.90;99.90
17740;DHT22;8990;33.226;-97.150;2022-11-15T00:28:47;5.80;99.90
17740;DHT22;8990;33.226;-97.150;2022-11-15T00:31:36;5.80;99.90
17740;DHT22;8990;33.226;-97.150;2022-11-15T00:34:24;5.80;99.90
17740;DHT22;8990;33.226;-97.150;2022-11-15T00:37:13;5.90;99.90
17740;DHT22;8990;33.226;-97.150;2022-11-15T00:40:00;5.80;99.90
17740;DHT22;8990;33.226;-97.150;2022-11-15T00:42:48;5.70;99.90
17740;DHT22;8990;33.226;-97.150;2022-11-15T00:45:35;5.80;99.90
17740;DHT22;8990;33.226;-97.150;2022-11-15T00:48:26;5.80;99.90
17740;DHT22;8990;33.226;-97.150;2022-11-15T00:51:13;5.70;99.90
17740;DHT22;8990;33.226;-97.150;2022-11-15T00:54:01;5.60;99.90
17740;DHT22;8990;33.226;-97.150;2022-11-15T00:56:51;5.70;99.90
17740;DHT22;8990;33.226;-97.150;2022-11-15T00:59:38;5.70;99.90
17740;DHT22;8990;33.226;-97.150;2022-11-15T01:02:28;5.70;99.90
17740;DHT22;8990;33.226;-97.150;2022-11-15T01:05:18;5.70;99.90
17740;DHT22;8990;33.226;-97.150;2022-11-15T01:08:10;5.80;99.90
17740;DHT22;8990;33.226;-97.150;2022-11-15T01:11:01;5.70;99.90
17740;DHT22;8990;33.226;-97.150;2022-11-15T01:13:50;5.70;99.90
17740;DHT22;8990;33.226;-97.150;2022-11-15T01:16:39;5.70;99.90
17740;DHT22;8990;33.226;-97.150;2022-11-15T01:19:27;5.70;99.90
17740;DHT22;8990;33.226;-97.150;2022-11-15T01:22:17;5.80;99.90
17740;DHT22;8990;33.226;-97.150;2022-11-15T01:25:05;5.70;99.90
17740;DHT22;8990;33.226;-97.150;2022-11-15T01:27:53;5.60;99.90
17740;DHT22;8990;33.226;-97.150;2022-11-15T01:30:41;5.60;99.90
17740;DHT22;8990;33.226;-97.150;2022-11-15T01:33:30;5.60;99.90
17740;DHT22;8990;33.226;-97.150;2022-11-15T01:36:18;5.60;99.90
17740;DHT22;8990;33.226;-97.150;2022-11-15T01:39:10;5.50;99.90
17740;DHT22;8990;33.226;-97.150;2022-11-15T01:41:57;5.60;99.90
17740;DHT22;8990;33.226;-97.150;2022-11-15T01:44:48;5.70;99.90
17740;DHT22;8990;33.226;-97.150;2022-11-15T01:47:38;5.70;99.90
17740;DHT22;8990;33.226;-97.150;2022-11-15T01:50:30;5.70;99.90
17740;DHT22;8990;33.226;-97.150;2022-11-15T01:53:22;5.70;99.90
17740;DHT22;8990;33.226;-97.150;2022-11-15T01:56:18;5.70;99.90
17740;DHT22;8990;33.226;-97.150;2022-11-15T01:59:08;5.60;99.90
17740;DHT22;8990;33.226;-97.150;2022-11-15T02:01:56;5.70;99.90
17740;DHT22;8990;33.226;-97.150;2022-11-15T02:04:46;5.70;99.90
17740;DHT22;8990;33.226;-97.150;2022-11-15T02:07:35;5.70;99.90
17740;DHT22;8990;33.226;-97.150;2022-11-15T02:10:24;5.70;99.90
17740;DHT22;8990;33.226;-97.150;2022-11-15T02:13:14;5.60;99.90
17740;DHT22;8990;33.226;-97.150;2022-11-15T02:16:08;5.60;99.90
17740;DHT22;8990;33.226;-97.150;2022-11-15T02:19:02;5.60;99.90
17740;DHT22;8990;33.226;-97.150;2022-11-15T02:22:03;5.60;99.90
17740;DHT22;8990;33.226;-97.150;2022-11-15T02:25:21;5.60;99.90
17740;DHT22;8990;33.226;-97.150;2022-11-15T02:28:35;5.60;99.90
17740;DHT22;8990;33.226;-97.150;2022-11-15T02:31:32;5.60;99.90
17740;DHT22;8990;33.226;-97.150;2022-11-15T02:34:28;5.60;99.90
17740;DHT22;8990;33.226;-97.150;2022-11-15T02:37:29;5.60;99.90
17740;DHT22;8990;33.226;-97.150;2022-11-15T02:40:26;5.50;99.90
17740;DHT22;8990;33.226;-97.150;2022-11-15T02:43:18;5.50;99.90
17740;DHT22;8990;33.226;-97.150;2022-11-15T02:46:33;5.50;99.90
17740;DHT22;8990;33.226;-97.150;2022-11-15T02:49:50;5.60;99.90
17740;DHT22;8990;33.226;-97.150;2022-11-15T02:52:38;5.60;99.90
17740;DHT22;8990;33.226;-97.150;2022-11-15T02:55:28;5.50;99.90
17740;DHT22;8990;33.226;-97.150;2022-11-15T02:58:32;5.60;99.90
17740;DHT22;8990;33.226;-97.150;2022-11-15T03:01:38;5.70;99.90
17740;DHT22;8990;33.226;-97.150;2022-11-15T03:04:36;5.60;99.90
17740;DHT22;8990;33.226;-97.150;2022-11-15T03:07:32;5.70;99.90
17740;DHT22;8990;33.226;-97.150;2022-11-15T03:10:26;5.60;99.90
17740;DHT22;8990;33.226;-97.150;2022-11-15T03:13:23;5.60;99.90
17740;DHT22;8990;33.226;-97.150;2022-11-15T03:16:17;5.60;99.90
17740;DHT22;8990;33.226;-97.150;2022-11-15T03:19:14;5.60;99.90
17740;DHT22;8990;33.226;-97.150;2022-11-15T03:22:05;5.60;99.90
17740;DHT22;8990;33.226;-97.150;2022-11-15T03:24:57;5.70;99.90
17740;DHT22;8990;33.226;-97.150;2022-11-15T03:27:48;5.70;99.90
17740;DHT22;8990;33.226;-97.150;2022-11-15T03:30:39;5.70;99.90
17740;DHT22;8990;33.226;-97.150;2022-11-15T03:33:28;5.70;99.90
17740;DHT22;8990;33.226;-97.150;2022-11-15T03:36:19;5.70;99.90
17740;DHT22;8990;33.226;-97.150;2022-11-15T03:39:09;5.70;99.90
17740;DHT22;8990;33.226;-97.150;2022-11-15T03:42:04;5.60;99.90
17740;DHT22;8990;33.226;-97.150;2022-11-15T03:44:56;5.60;99.90
17740;DHT22;8990;33.226;-97.150;2022-11-15T03:47:49;5.60;99.90
17740;DHT22;8990;33.226;-97.150;2022-11-15T03:50:39;5.70;99.90
17740;DHT22;8990;33.226;-97.150;2022-11-15T03:53:30;5.70;99.90
17740;DHT22;8990;33.226;-97.150;2022-11-15T03:56:19;5.70;99.90
17740;DHT22;8990;33.226;-97.150;2022-11-15T03:59:06;5.70;99.90
17740;DHT22;8990;33.226;-97.150;2022-11-15T04:01:54;5.70;99.90
17740;DHT22;8990;33.226;-97.150;2022-11-15T04:04:43;5.70;99.90
17740;DHT22;8990;33.226;-97.150;2022-11-15T04:07:31;5.70;99.90
17740;DHT22;8990;33.226;-97.150;2022-11-15T04:10:21;5.70;99.90
17740;DHT22;8990;33.226;-97.150;2022-11-15T04:13:08;5.60;99.90
17740;DHT22;8990;33.226;-97.150;2022-11-15T04:15:56;5.60;99.90
17740;DHT22;8990;33.226;-97.150;2022-11-15T04:18:48;5.60;99.90
17740;DHT22;8990;33.226;-97.150;2022-11-15T04:21:57;5.60;99.90
17740;DHT22;8990;33.226;-97.150;2022-11-15T04:24:57;5.50;99.90
17740;DHT22;8990;33.226;-97.150;2022-11-15T04:27:48;5.50;99.90
17740;DHT22;8990;33.226;-97.150;2022-11-15T04:30:35;5.50;99.90
17740;DHT22;8990;33.226;-97.150;2022-11-15T04:33:24;5.40;99.90
17740;DHT22;8990;33.226;-97.150;2022-11-15T04:36:12;5.50;99.90
17740;DHT22;8990;33.226;-97.150;2022-11-15T04:39:18;5.50;99.90
17740;DHT22;8990;33.226;-97.150;2022-11-15T04:42:06;5.50;99.90
17740;DHT22;8990;33.226;-97.150;2022-11-15T04:44:55;5.50;99.90
17740;DHT22;8990;33.226;-97.150;2022-11-15T04:47:44;5.50;99.90
17740;DHT22;8990;33.226;-97.150;2022-11-15T04:50:32;5.50;99.90
17740;DHT22;8990;33.226;-97.150;2022-11-15T04:53:20;5.50;99.90
17740;DHT22;8990;33.226;-97.150;2022-11-15T04:56:08;5.40;99.90
17740;DHT22;8990;33.226;-97.150;2022-11-15T04:58:56;5.40;99.90
17740;DHT22;8990;33.226;-97.150;2022-11-15T05:01:46;5.40;99.90
17740;DHT22;8990;33.226;-97.150;2022-11-15T05:04:33;5.40;99.90
17740;DHT22;8990;33.226;-97.150;2022-11-15T05:07:19;5.50;99.90
17740;DHT22;8990;33.226;-97.150;2022-11-15T05:10:08;5.50;99.90
17740;DHT22;8990;33.226;-97.150;2022-11-15T05:12:56;5.40;99.90
17740;DHT22;8990;33.226;-97.150;2022-11-15T05:15:45;5.40;99.90
17740;DHT22;8990;33.226;-97.150;2022-11-15T05:18:35;5.40;99.90
17740;DHT22;8990;33.226;-97.150;2022-11-15T05:21:25;5.40;99.90
17740;DHT22;8990;33.226;-97.150;2022-11-15T05:24:14;5.40;99.90
17740;DHT22;8990;33.226;-97.150;2022-11-15T05:27:02;5.40;99.90
17740;DHT22;8990;33.226;-97.150;2022-11-15T05:29:50;5.50;99.90
17740;DHT22;8990;33.226;-97.150;2022-11-15T05:32:38;5.60;99.90
17740;DHT22;8990;33.226;-97.150;2022-11-15T05:35:31;5.60;99.90
17740;DHT22;8990;33.226;-97.150;2022-11-15T05:38:21;5.50;99.90
17740;DHT22;8990;33.226;-97.150;2022-11-15T05:41:09;5.50;99.90
17740;DHT22;8990;33.226;-97.150;2022-11-15T05:43:58;5.60;99.90
17740;DHT22;8990;33.226;-97.150;2022-11-15T05:46:48;5.60;99.90
17740;DHT22;8990;33.226;-97.150;2022-11-15T05:49:39;5.70;99.90
17740;DHT22;8990;33.226;-97.150;2022-11-15T05:52:33;5.70;99.90
17740;DHT22;8990;33.226;-97.150;2022-11-15T05:55:21;5.70;99.90
17740;DHT22;8990;33.226;-97.150;2022-11-15T05:58:10;5.70;99.90
17740;DHT22;8990;33.226;-97.150;2022-11-15T06:00:58;5.70;99.90
17740;DHT22;8990;33.226;-97.150;2022-11-15T06:03:47;5.70;99.90
17740;DHT22;8990;33.226;-97.150;2022-11-15T06:06:35;5.80;99.90
17740;DHT22;8990;33.226;-97.150;2022-11-15T06:09:24;5.80;99.90
17740;DHT22;8990;33.226;-97.150;2022-11-15T06:12:13;5.70;99.90
17740;DHT22;8990;33.226;-97.150;2022-11-15T06:15:00;5.60;99.90
17740;DHT22;8990;33.226;-97.150;2022-11-15T06:17:48;5.70;99.90
17740;DHT22;8990;33.226;-97.150;2022-11-15T06:20:35;5.70;99.90
17740;DHT22;8990;33.226;-97.150;2022-11-15T06:23:25;5.70;99.90
17740;DHT22;8990;33.226;-97.150;2022-11-15T06:26:15;5.60;99.90
17740;DHT22;8990;33.226;-97.150;2022-11-15T06:29:03;5.70;99.90
17740;DHT22;8990;33.226;-97.150;2022-11-15T06:31:50;5.70;99.90
17740;DHT22;8990;33.226;-97.150;2022-11-15T06:34:37;5.80;99.90
17740;DHT22;8990;33.226;-97.150;2022-11-15T06:37:27;5.80;99.90
17740;DHT22;8990;33.226;-97.150;2022-11-15T06:40:15;5.70;99.90
17740;DHT22;8990;33.226;-97.150;2022-11-15T06:43:05;5.70;99.90
17740;DHT22;8990;33.226;-97.150;2022-11-15T06:45:53;5.70;99.90
17740;DHT22;8990;33.226;-97.150;2022-11-15T06:48:42;5.70;99.90
17740;DHT22;8990;33.226;-97.150;2022-11-15T06:51:29;5.70;99.90
17740;DHT22;8990;33.226;-97.150;2022-11-15T06:54:18;5.70;99.90
17740;DHT22;8990;33.226;-97.150;2022-11-15T06:57:06;5.70;99.90
17740;DHT22;8990;33.226;-97.150;2022-11-15T06:59:56;5.60;99.90
17740;DHT22;8990;33.226;-97.150;2022-11-15T07:02:43;5.60;99.90
17740;DHT22;8990;33.226;-97.150;2022-11-15T07:05:32;5.50;99.90
17740;DHT22;8990;33.226;-97.150;2022-11-15T07:08:20;5.50;99.90
17740;DHT22;8990;33.226;-97.150;2022-11-15T07:11:08;5.50;99.90
17740;DHT22;8990;33.226;-97.150;2022-11-15T07:13:57;5.50;99.90
17740;DHT22;8990;33.226;-97.150;2022-11-15T07:16:47;5.50;99.90
17740;DHT22;8990;33.226;-97.150;2022-11-15T07:19:36;5.50;99.90
17740;DHT22;8990;33.226;-97.150;2022-11-15T07:22:24;5.40;99.90
17740;DHT22;8990;33.226;-97.150;2022-11-15T07:25:12;5.50;99.90
17740;DHT22;8990;33.226;-97.150;2022-11-15T07:28:01;5.40;99.90
17740;DHT22;8990;33.226;-97.150;2022-11-15T07:30:49;5.30;99.90
17740;DHT22;8990;33.226;-97.150;2022-11-15T07:33:39;5.40;99.90
17740;DHT22;8990;33.226;-97.150;2022-11-15T07:36:28;5.30;99.90
17740;DHT22;8990;33.226;-97.150;2022-11-15T07:39:16;5.30;99.90
17740;DHT22;8990;33.226;-97.150;2022-11-15T07:42:05;5.20;99.90
17740;DHT22;8990;33.226;-97.150;2022-11-15T07:45:11;5.20;99.90
17740;DHT22;8990;33.226;-97.150;2022-11-15T07:48:00;5.20;99.90
17740;DHT22;8990;33.226;-97.150;2022-11-15T07:50:49;5.20;99.90
17740;DHT22;8990;33.226;-97.150;2022-11-15T07:53:38;5.10;99.90
17740;DHT22;8990;33.226;-97.150;2022-11-15T07:56:25;5.10;99.90
17740;DHT22;8990;33.226;-97.150;2022-11-15T07:59:13;5.20;99.90
17740;DHT22;8990;33.226;-97.150;2022-11-15T08:01:59;5.10;99.90
17740;DHT22;8990;33.226;-97.150;2022-11-15T08:04:47;5.00;99.90
17740;DHT22;8990;33.226;-97.150;2022-11-15T08:07:37;5.10;99.90
17740;DHT22;8990;33.226;-97.150;2022-11-15T08:10:25;5.00;99.90
17740;DHT22;8990;33.226;-97.150;2022-11-15T08:13:13;5.00;99.90
17740;DHT22;8990;33.226;-97.150;2022-11-15T08:16:02;5.00;99.90
17740;DHT22;8990;33.226;-97.150;2022-11-15T08:18:51;5.00;99.90
17740;DHT22;8990;33.226;-97.150;2022-11-15T08:21:39;5.00;99.90
17740;DHT22;8990;33.226;-97.150;2022-11-15T08:24:28;5.00;99.90
17740;DHT22;8990;33.226;-97.150;2022-11-15T08:27:17;5.00;99.90
17740;DHT22;8990;33.226;-97.150;2022-11-15T08:30:06;5.00;99.90
17740;DHT22;8990;33.226;-97.150;2022-11-15T08:32:55;4.90;99.90
17740;DHT22;8990;33.226;-97.150;2022-11-15T08:35:44;5.00;99.90
17740;DHT22;8990;33.226;-97.150;2022-11-15T08:38:32;4.90;99.90
17740;DHT22;8990;33.226;-97.150;2022-11-15T08:41:26;4.90;99.90
17740;DHT22;8990;33.226;-97.150;2022-11-15T08:44:15;4.90;99.90
17740;DHT22;8990;33.226;-97.150;2022-11-15T08:47:02;5.00;99.90
17740;DHT22;8990;33.226;-97.150;2022-11-15T08:49:49;5.00;99.90
17740;DHT22;8990;33.226;-97.150;2022-11-15T08:52:36;5.00;99.90
17740;DHT22;8990;33.226;-97.150;2022-11-15T08:55:24;4.90;99.90
17740;DHT22;8990;33.226;-97.150;2022-11-15T08:58:14;4.90;99.90
17740;DHT22;8990;33.226;-97.150;2022-11-15T09:01:02;5.00;99.90
17740;DHT22;8990;33.226;-97.150;2022-11-15T09:03:50;5.00;99.90
17740;DHT22;8990;33.226;-97.150;2022-11-15T09:06:39;5.00;99.90
17740;DHT22;8990;33.226;-97.150;2022-11-15T09:09:27;5.00;99.90
17740;DHT22;8990;33.226;-97.150;2022-11-15T09:12:15;5.00;99.90
17740;DHT22;8990;33.226;-97.150;2022-11-15T09:15:06;5.10;99.90
17740;DHT22;8990;33.226;-97.150;2022-11-15T09:17:58;5.00;99.90
17740;DHT22;8990;33.226;-97.150;2022-11-15T09:20:46;5.00;99.90
17740;DHT22;8990;33.226;-97.150;2022-11-15T09:23:35;5.00;99.90
17740;DHT22;8990;33.226;-97.150;2022-11-15T09:26:23;5.00;99.90
17740;DHT22;8990;33.226;-97.150;2022-11-15T09:29:11;5.00;99.90
17740;DHT22;8990;33.226;-97.150;2022-11-15T09:32:01;5.00;99.90
17740;DHT22;8990;33.226;-97.150;2022-11-15T09:34:48;5.00;99.90
17740;DHT22;8990;33.226;-97.150;2022-11-15T09:37:37;5.00;99.90
17740;DHT22;8990;33.226;-97.150;2022-11-15T09:40:25;4.90;99.90
17740;DHT22;8990;33.226;-97.150;2022-11-15T09:43:32;4.90;99.90
17740;DHT22;8990;33.226;-97.150;2022-11-15T09:46:30;4.90;99.90
17740;DHT22;8990;33.226;-97.150;2022-11-15T09:49:23;4.90;99.90
17740;DHT22;8990;33.226;-97.150;2022-11-15T09:52:08;4.80;99.90
17740;DHT22;8990;33.226;-97.150;2022-11-15T09:54:39;4.80;99.90
17740;DHT22;8990;33.226;-97.150;2022-11-15T09:57:13;4.80;99.90
17740;DHT22;8990;33.226;-97.150;2022-11-15T09:59:51;4.80;99.90
17740;DHT22;8990;33.226;-97.150;2022-11-15T10:02:38;4.80;99.90
17740;DHT22;8990;33.226;-97.150;2022-11-15T10:05:15;4.80;99.90
17740;DHT22;8990;33.226;-97.150;2022-11-15T10:07:53;4.80;99.90
17740;DHT22;8990;33.226;-97.150;2022-11-15T10:10:29;4.80;99.90
17740;DHT22;8990;33.226;-97.150;2022-11-15T10:13:02;4.80;99.90
17740;DHT22;8990;33.226;-97.150;2022-11-15T10:15:32;4.80;99.90
17740;DHT22;8990;33.226;-97.150;2022-11-15T10:18:08;4.80;99.90
17740;DHT22;8990;33.226;-97.150;2022-11-15T10:20:47;4.90;99.90
17740;DHT22;8990;33.226;-97.150;2022-11-15T10:23:19;4.90;99.90
17740;DHT22;8990;33.226;-97.150;2022-11-15T10:25:51;4.90;99.90
17740;DHT22;8990;33.226;-97.150;2022-11-15T10:28:25;4.90;99.90
17740;DHT22;8990;33.226;-97.150;2022-11-15T10:30:57;4.90;99.90
17740;DHT22;8990;33.226;-97.150;2022-11-15T10:33:34;4.90;99.90
17740;DHT22;8990;33.226;-97.150;2022-11-15T10:36:22;4.90;99.90
17740;DHT22;8990;33.226;-97.150;2022-11-15T10:38:57;4.90;99.90
17740;DHT22;8990;33.226;-97.150;2022-11-15T10:41:36;4.90;99.90
17740;DHT22;8990;33.226;-97.150;2022-11-15T10:44:22;5.00;99.90
17740;DHT22;8990;33.226;-97.150;2022-11-15T10:47:24;4.90;99.90
17740;DHT22;8990;33.226;-97.150;2022-11-15T10:49:59;4.90;99.90
17740;DHT22;8990;33.226;-97.150;2022-11-15T10:52:33;4.90;99.90
17740;DHT22;8990;33.226;-97.150;2022-11-15T10:55:20;4.90;99.90
17740;DHT22;8990;33.226;-97.150;2022-11-15T10:57:54;5.00;99.90
17740;DHT22;8990;33.226;-97.150;2022-11-15T11:00:29;5.00;99.90
17740;DHT22;8990;33.226;-97.150;2022-11-15T11:03:02;5.00;99.90
17740;DHT22;8990;33.226;-97.150;2022-11-15T11:05:34;4.90;99.90
17740;DHT22;8990;33.226;-97.150;2022-11-15T11:08:21;4.90;99.90
17740;DHT22;8990;33.226;-97.150;2022-11-15T11:10:53;4.80;99.90
17740;DHT22;8990;33.226;-97.150;2022-11-15T11:13:25;4.90;99.90
17740;DHT22;8990;33.226;-97.150;2022-11-15T11:15:59;4.90;99.90
17740;DHT22;8990;33.226;-97.150;2022-11-15T11:18:35;4.90;99.90
17740;DHT22;8990;33.226;-97.150;2022-11-15T11:21:10;4.90;99.90
17740;DHT22;8990;33.226;-97.150;2022-11-15T11:23:51;4.80;99.90
17740;DHT22;8990;33.226;-97.150;2022-11-15T11:26:35;4.80;99.90
17740;DHT22;8990;33.226;-97.150;2022-11-15T11:29:19;4.90;99.90
17740;DHT22;8990;33.226;-97.150;2022-11-15T11:31:57;4.90;99.90
17740;DHT22;8990;33.226;-97.150;2022-11-15T11:34:38;4.80;99.90
17740;DHT22;8990;33.226;-97.150;2022-11-15T11:37:14;4.80;99.90
17740;DHT22;8990;33.226;-97.150;2022-11-15T11:40:02;4.80;99.90
17740;DHT22;8990;33.226;-97.150;2022-11-15T11:42:40;4.80;99.90
17740;DHT22;8990;33.226;-97.150;2022-11-15T11:45:18;4.80;99.90
17740;DHT22;8990;33.226;-97.150;2022-11-15T11:47:54;4.80;99.90
17740;DHT22;8990;33.226;-97.150;2022-11-15T11:50:26;4.80;99.90
17740;DHT22;8990;33.226;-97.150;2022-11-15T11:53:01;4.80;99.90
17740;DHT22;8990;33.226;-97.150;2022-11-15T11:55:37;4.80;99.90
17740;DHT22;8990;33.226;-97.150;2022-11-15T11:58:13;4.80;99.90
17740;DHT22;8990;33.226;-97.150;2022-11-15T12:00:51;4.70;99.90
17740;DHT22;8990;33.226;-97.150;2022-11-15T12:03:27;4.70;99.90
17740;DHT22;8990;33.226;-97.150;2022-11-15T12:05:59;4.70;99.90
17740;DHT22;8990;33.226;-97.150;2022-11-15T12:08:36;4.60;99.90
17740;DHT22;8990;33.226;-97.150;2022-11-15T12:11:13;4.60;99.90
17740;DHT22;8990;33.226;-97.150;2022-11-15T12:13:49;4.50;99.90
17740;DHT22;8990;33.226;-97.150;2022-11-15T12:16:23;4.40;99.90
17740;DHT22;8990;33.226;-97.150;2022-11-15T12:18:58;4.40;99.90
17740;DHT22;8990;33.226;-97.150;2022-11-15T12:21:34;4.30;99.90
17740;DHT22;8990;33.226;-97.150;2022-11-15T12:24:11;4.20;99.90
17740;DHT22;8990;33.226;-97.150;2022-11-15T12:26:51;4.20;99.90
17740;DHT22;8990;33.226;-97.150;2022-11-15T12:29:27;4.20;99.90
17740;DHT22;8990;33.226;-97.150;2022-11-15T12:31:58;4.30;99.90
17740;DHT22;8990;33.226;-97.150;2022-11-15T12:34:38;4.20;99.90
17740;DHT22;8990;33.226;-97.150;2022-11-15T12:37:33;4.20;99.90
17740;DHT22;8990;33.226;-97.150;2022-11-15T12:40:20;4.10;99.90
17740;DHT22;8990;33.226;-97.150;2022-11-15T12:46:05;4.10;99.90
17740;DHT22;8990;33.226;-97.150;2022-11-15T12:48:58;4.10;99.90
17740;DHT22;8990;33.226;-97.150;2022-11-15T12:54:56;4.00;99.90
17740;DHT22;8990;33.226;-97.150;2022-11-15T12:57:35;4.10;99.90
17740;DHT22;8990;33.226;-97.150;2022-11-15T13:03:27;4.10;99.90
17740;DHT22;8990;33.226;-97.150;2022-11-15T13:09:52;3.90;99.90
17740;DHT22;8990;33.226;-97.150;2022-11-15T13:12:50;3.90;99.90
17740;DHT22;8990;33.226;-97.150;2022-11-15T13:15:38;4.00;99.90
17740;DHT22;8990;33.226;-97.150;2022-11-15T13:18:30;4.00;99.90
17740;DHT22;8990;33.226;-97.150;2022-11-15T13:21:00;4.00;99.90
17740;DHT22;8990;33.226;-97.150;2022-11-15T13:23:54;4.10;99.90
17740;DHT22;8990;33.226;-97.150;2022-11-15T13:26:24;4.10;99.90
17740;DHT22;8990;33.226;-97.150;2022-11-15T13:28:54;4.10;99.90
17740;DHT22;8990;33.226;-97.150;2022-11-15T13:31:31;4.10;99.90
17740;DHT22;8990;33.226;-97.150;2022-11-15T13:34:24;4.10;99.90
17740;DHT22;8990;33.226;-97.150;2022-11-15T13:36:55;4.00;99.90
17740;DHT22;8990;33.226;-97.150;2022-11-15T13:39:30;4.00;99.90
17740;DHT22;8990;33.226;-97.150;2022-11-15T13:42:01;4.00;99.90
17740;DHT22;8990;33.226;-97.150;2022-11-15T13:44:32;4.00;99.90
17740;DHT22;8990;33.226;-97.150;2022-11-15T13:47:04;4.00;99.90
17740;DHT22;8990;33.226;-97.150;2022-11-15T13:49:35;4.00;99.90
17740;DHT22;8990;33.226;-97.150;2022-11-15T13:52:07;4.00;99.90
17740;DHT22;8990;33.226;-97.150;2022-11-15T13:54:41;4.00;99.90
17740;DHT22;8990;33.226;-97.150;2022-11-15T13:57:14;4.00;99.90
17740;DHT22;8990;33.226;-97.150;2022-11-15T13:59:47;3.90;99.90
17740;DHT22;8990;33.226;-97.150;2022-11-15T14:03:29;4.30;99.90
17740;DHT22;8990;33.226;-97.150;2022-11-15T14:06:05;3.90;99.90
17740;DHT22;8990;33.226;-97.150;2022-11-15T14:08:39;3.90;99.90
17740;DHT22;8990;33.226;-97.150;2022-11-15T14:11:15;4.00;99.90
17740;DHT22;8990;33.226;-97.150;2022-11-15T14:14:08;4.10;99.90
17740;DHT22;8990;33.226;-97.150;2022-11-15T14:16:41;4.00;99.90
17740;DHT22;8990;33.226;-97.150;2022-11-15T14:19:32;4.00;99.90
17740;DHT22;8990;33.226;-97.150;2022-11-15T14:25:17;4.00;99.90
17740;DHT22;8990;33.226;-97.150;2022-11-15T14:28:15;4.00;99.90
17740;DHT22;8990;33.226;-97.150;2022-11-15T14:30:46;4.00;99.90
17740;DHT22;8990;33.226;-97.150;2022-11-15T14:33:20;4.10;99.90
17740;DHT22;8990;33.226;-97.150;2022-11-15T14:35:51;4.10;99.90
17740;DHT22;8990;33.226;-97.150;2022-11-15T14:38:22;4.10;99.90
17740;DHT22;8990;33.226;-97.150;2022-11-15T14:40:52;4.10;99.90
17740;DHT22;8990;33.226;-97.150;2022-11-15T14:43:22;4.10;99.90
17740;DHT22;8990;33.226;-97.150;2022-11-15T14:45:52;4.10;99.90
17740;DHT22;8990;33.226;-97.150;2022-11-15T14:48:23;4.10;99.90
17740;DHT22;8990;33.226;-97.150;2022-11-15T14:50:54;4.00;99.90
17740;DHT22;8990;33.226;-97.150;2022-11-15T14:53:24;4.10;99.90
17740;DHT22;8990;33.226;-97.150;2022-11-15T14:55:53;4.00;99.90
17740;DHT22;8990;33.226;-97.150;2022-11-15T14:58:22;4.10;99.90
17740;DHT22;8990;33.226;-97.150;2022-11-15T15:00:51;4.20;99.90
17740;DHT22;8990;33.226;-97.150;2022-11-15T15:03:22;4.20;99.90
17740;DHT22;8990;33.226;-97.150;2022-11-15T15:05:51;4.20;99.90
17740;DHT22;8990;33.226;-97.150;2022-11-15T15:08:22;4.30;99.90
17740;DHT22;8990;33.226;-97.150;2022-11-15T15:10:51;4.30;99.90
17740;DHT22;8990;33.226;-97.150;2022-11-15T15:13:23;4.30;99.90
17740;DHT22;8990;33.226;-97.150;2022-11-15T15:15:55;4.30;99.90
17740;DHT22;8990;33.226;-97.150;2022-11-15T15:18:25;4.40;99.90
17740;DHT22;8990;33.226;-97.150;2022-11-15T15:20:56;4.30;99.90
17740;DHT22;8990;33.226;-97.150;2022-11-15T15:23:31;4.30;99.90
17740;DHT22;8990;33.226;-97.150;2022-11-15T15:26:02;4.20;99.90
17740;DHT22;8990;33.226;-97.150;2022-11-15T15:28:31;4.30;99.90
17740;DHT22;8990;33.226;-97.150;2022-11-15T15:31:03;4.30;99.90
17740;DHT22;8990;33.226;-97.150;2022-11-15T15:33:33;4.40;99.90
17740;DHT22;8990;33.226;-97.150;2022-11-15T15:36:02;4.40;99.90
17740;DHT22;8990;33.226;-97.150;2022-11-15T15:38:34;4.30;99.90
17740;DHT22;8990;33.226;-97.150;2022-11-15T15:41:07;4.40;99.90
17740;DHT22;8990;33.226;-97.150;2022-11-15T15:43:37;4.40;99.90
17740;DHT22;8990;33.226;-97.150;2022-11-15T15:46:09;4.50;99.90
17740;DHT22;8990;33.226;-97.150;2022-11-15T15:48:40;4.20;99.90
17740;DHT22;8990;33.226;-97.150;2022-11-15T15:51:10;4.30;99.90
17740;DHT22;8990;33.226;-97.150;2022-11-15T15:53:41;4.30;99.90
17740;DHT22;8990;33.226;-97.150;2022-11-15T15:56:11;4.30;99.90
17740;DHT22;8990;33.226;-97.150;2022-11-15T15:58:41;4.30;99.90
17740;DHT22;8990;33.226;-97.150;2022-11-15T16:01:10;4.40;99.90
17740;DHT22;8990;33.226;-97.150;2022-11-15T16:03:40;4.40;99.90
17740;DHT22;8990;33.226;-97.150;2022-11-15T16:06:32;4.50;99.90
17740;DHT22;8990;33.226;-97.150;2022-11-15T16:09:04;4.50;99.90
17740;DHT22;8990;33.226;-97.150;2022-11-15T16:11:35;4.50;99.90
17740;DHT22;8990;33.226;-97.150;2022-11-15T16:14:05;4.60;99.90
17740;DHT22;8990;33.226;-97.150;2022-11-15T16:16:34;4.60;99.90
17740;DHT22;8990;33.226;-97.150;2022-11-15T16:19:05;4.60;99.90
17740;DHT22;8990;33.226;-97.150;2022-11-15T16:21:35;4.70;99.90
17740;DHT22;8990;33.226;-97.150;2022-11-15T16:24:05;4.70;99.90
17740;DHT22;8990;33.226;-97.150;2022-11-15T16:26:37;4.80;99.90
17740;DHT22;8990;33.226;-97.150;2022-11-15T16:29:08;4.80;99.90
17740;DHT22;8990;33.226;-97.150;2022-11-15T16:31:38;4.90;99.90
17740;DHT22;8990;33.226;-97.150;2022-11-15T16:34:07;4.80;99.90
17740;DHT22;8990;33.226;-97.150;2022-11-15T16:36:37;4.90;99.90
17740;DHT22;8990;33.226;-97.150;2022-11-15T16:39:11;4.70;99.90
17740;DHT22;8990;33.226;-97.150;2022-11-15T16:41:43;4.80;99.90
17740;DHT22;8990;33.226;-97.150;2022-11-15T16:44:13;4.90;99.90
17740;DHT22;8990;33.226;-97.150;2022-11-15T16:46:43;4.90;99.90
17740;DHT22;8990;33.226;-97.150;2022-11-15T16:49:18;4.90;99.90
17740;DHT22;8990;33.226;-97.150;2022-11-15T16:51:49;5.00;99.90
17740;DHT22;8990;33.226;-97.150;2022-11-15T16:54:21;5.10;99.90
17740;DHT22;8990;33.226;-97.150;2022-11-15T16:56:51;5.10;99.90
17740;DHT22;8990;33.226;-97.150;2022-11-15T16:59:20;5.00;99.90
17740;DHT22;8990;33.226;-97.150;2022-11-15T17:01:51;5.10;99.90
17740;DHT22;8990;33.226;-97.150;2022-11-15T17:04:21;5.20;99.90
17740;DHT22;8990;33.226;-97.150;2022-11-15T17:06:51;5.20;99.90
17740;DHT22;8990;33.226;-97.150;2022-11-15T17:09:22;5.20;99.90
17740;DHT22;8990;33.226;-97.150;2022-11-15T17:11:52;5.20;99.90
17740;DHT22;8990;33.226;-97.150;2022-11-15T17:14:21;5.20;99.90
17740;DHT22;8990;33.226;-97.150;2022-11-15T17:16:51;5.20;99.90
17740;DHT22;8990;33.226;-97.150;2022-11-15T17:19:21;5.30;99.90
17740;DHT22;8990;33.226;-97.150;2022-11-15T17:21:51;5.40;99.90
17740;DHT22;8990;33.226;-97.150;2022-11-15T17:24:22;5.40;99.90
17740;DHT22;8990;33.226;-97.150;2022-11-15T17:26:52;5.40;99.90
17740;DHT22;8990;33.226;-97.150;2022-11-15T17:29:21;5.40;99.90